Time;durP1;ratioP1;P1;durP2;ratioP2;P2;SDS_P1;SDS_P2;PMS_P1;PMS_P2;Temp;Humidity;BMP_temperature;BMP_pressure;BME280_temperature;BME280_humidity;BME280_pressure;Samples;Min_cycle;Max_cycle;Signal;HPM_P1;HPM_P2
2020/12/18 00:01:10;;;;;;;;;;;;;;;27.65;26.00;101921.78;5059597;28;1405;-41
2020/12/18 00:03:36;;;;;;;;;;;;;;;27.53;26.47;101922.06;5059850;28;784;-43
2020/12/18 00:06:01;;;;;;;;;;;;;;;27.75;26.24;101915.34;5059674;28;967;-44
2020/12/18 00:08:26;;;;;;;;;;;;;;;27.43;26.50;101918.59;5059488;28;772;-44
2020/12/18 00:10:51;;;;;;;;;;;;;;;27.16;26.99;101923.94;5059890;28;768;-42
2020/12/18 00:13:17;;;;;;;;;;;;;;;27.38;26.62;101922.63;5059808;28;803;-43
2020/12/18 00:15:42;;;;;;;;;;;;;;;27.41;26.81;101924.16;5059550;28;1902;-42
2020/12/18 00:18:07;;;;;;;;;;;;;;;27.25;26.86;101922.19;5059493;28;1067;-42
2020/12/18 00:20:32;;;;;;;;;;;;;;;27.22;26.85;101928.75;5059611;28;963;-46
2020/12/18 00:22:58;;;;;;;;;;;;;;;27.32;26.62;101930.50;5059023;28;804;-46
2020/12/18 00:25:23;;;;;;;;;;;;;;;27.30;26.62;101922.56;5059644;28;771;-46
2020/12/18 00:27:49;;;;;;;;;;;;;;;27.22;26.94;101925.19;5059742;28;1058;-46
2020/12/18 00:30:14;;;;;;;;;;;;;;;27.28;26.90;101931.84;5059556;28;744;-46
2020/12/18 00:32:40;;;;;;;;;;;;;;;27.13;27.12;101930.53;5059500;28;835;-41
2020/12/18 00:35:05;;;;;;;;;;;;;;;26.94;27.44;101933.34;5059580;28;1946;-41
2020/12/18 00:37:31;;;;;;;;;;;;;;;26.98;27.25;101924.78;5058689;28;507;-41
2020/12/18 00:39:56;;;;;;;;;;;;;;;26.88;27.21;101934.78;5059521;28;826;-41
2020/12/18 00:42:21;;;;;;;;;;;;;;;27.34;26.85;101936.63;5059553;28;808;-41
2020/12/18 00:44:47;;;;;;;;;;;;;;;27.72;25.95;101939.13;5071933;28;1124;-41
2020/12/18 00:47:12;;;;;;;;;;;;;;;27.99;25.78;101930.00;5079473;28;852;-41
2020/12/18 00:49:37;;;;;;;;;;;;;;;27.50;26.27;101928.63;5079310;28;760;-41
2020/12/18 00:52:03;;;;;;;;;;;;;;;27.36;26.40;101927.34;5041076;28;1286;-41
2020/12/18 00:54:28;;;;;;;;;;;;;;;27.32;26.36;101925.97;5059210;28;1968;-41
2020/12/18 00:56:53;;;;;;;;;;;;;;;27.68;25.97;101921.47;5059213;28;851;-41
2020/12/18 00:59:18;;;;;;;;;;;;;;;27.96;25.52;101932.19;5058857;28;819;-41
2020/12/18 01:01:44;;;;;;;;;;;;;;;28.01;25.62;101931.69;5058602;28;828;-42
2020/12/18 01:04:09;;;;;;;;;;;;;;;27.47;26.03;101926.25;5058763;28;835;-41
2020/12/18 01:06:34;;;;;;;;;;;;;;;27.41;26.51;101929.56;5058746;28;1017;-41
2020/12/18 01:08:59;;;;;;;;;;;;;;;27.32;26.65;101934.06;5059026;28;823;-41
2020/12/18 01:11:25;;;;;;;;;;;;;;;27.86;25.71;101929.59;5058850;28;760;-40
2020/12/18 01:13:50;;;;;;;;;;;;;;;28.02;25.56;101928.84;5058833;28;1918;-41
2020/12/18 01:16:15;;;;;;;;;;;;;;;27.45;26.07;101922.00;5058962;28;799;-41
2020/12/18 01:18:41;;;;;;;;;;;;;;;27.20;26.56;101924.50;5058499;28;1068;-42
2020/12/18 01:21:06;;;;;;;;;;;;;;;27.22;26.64;101920.66;5058441;28;1010;-41
2020/12/18 01:23:31;;;;;;;;;;;;;;;27.87;25.75;101923.16;5058740;28;748;-41
2020/12/18 01:25:57;;;;;;;;;;;;;;;28.03;25.25;101921.59;5058546;28;832;-41
2020/12/18 01:28:22;;;;;;;;;;;;;;;27.61;25.93;101926.69;5058472;28;775;-41
2020/12/18 01:30:47;;;;;;;;;;;;;;;27.24;26.40;101921.31;5058372;28;850;-41
2020/12/18 01:33:13;;;;;;;;;;;;;;;27.00;26.98;101920.06;5058389;28;839;-41
2020/12/18 01:35:38;;;;;;;;;;;;;;;27.54;26.46;101917.50;5058047;28;1969;-41
2020/12/18 01:38:03;;;;;;;;;;;;;;;27.89;25.64;101923.88;5058409;28;890;-41
2020/12/18 01:40:28;;;;;;;;;;;;;;;27.98;25.52;101913.94;5058134;28;792;-40
2020/12/18 01:42:54;;;;;;;;;;;;;;;27.32;26.56;101914.31;5058253;28;768;-40
2020/12/18 01:45:19;;;;;;;;;;;;;;;27.16;26.68;101915.84;5075454;28;1141;-41
2020/12/18 01:47:44;;;;;;;;;;;;;;;27.46;26.61;101913.72;5078068;28;752;-41
2020/12/18 01:50:10;;;;;;;;;;;;;;;27.85;25.80;101917.06;5055526;28;1014;-39
2020/12/18 01:52:35;;;;;;;;;;;;;;;28.15;25.51;101917.56;5040158;28;871;-44
2020/12/18 01:55:04;;;;;;;;;;;;;;;27.33;26.44;101911.44;5040064;28;1957;-44
2020/12/18 01:57:30;;;;;;;;;;;;;;;27.23;26.76;101919.63;5058082;28;826;-45
2020/12/18 01:59:55;;;;;;;;;;;;;;;27.29;26.92;101920.00;5040147;28;748;-44
2020/12/18 02:02:21;;;;;;;;;;;;;;;27.77;25.84;101917.88;5057932;28;839;-44
2020/12/18 02:04:47;;;;;;;;;;;;;;;28.06;25.67;101919.38;5057428;28;999;-44
2020/12/18 02:07:12;;;;;;;;;;;;;;;27.38;26.46;101919.06;5057325;28;800;-44
2020/12/18 02:09:38;;;;;;;;;;;;;;;27.36;26.39;101918.41;5057677;28;807;-41
2020/12/18 02:12:03;;;;;;;;;;;;;;;27.25;26.87;101924.88;5057869;28;854;-44
2020/12/18 02:14:28;;;;;;;;;;;;;;;27.81;25.85;101918.41;5057223;28;1910;-44
2020/12/18 02:16:53;;;;;;;;;;;;;;;28.10;25.48;101919.91;5057766;28;933;-44
2020/12/18 02:19:19;;;;;;;;;;;;;;;27.40;26.29;101917.06;5057558;28;1318;-44
2020/12/18 02:21:44;;;;;;;;;;;;;;;27.31;26.78;101920.72;5057368;28;975;-44
2020/12/18 02:24:10;;;;;;;;;;;;;;;27.29;26.78;101914.63;5057221;28;824;-44
2020/12/18 02:26:35;;;;;;;;;;;;;;;27.84;26.04;101924.31;5057948;28;764;-44
2020/12/18 02:29:00;;;;;;;;;;;;;;;28.05;25.61;101933.06;5057614;28;741;-44
2020/12/18 02:31:26;;;;;;;;;;;;;;;27.56;26.11;101921.75;5057508;28;803;-43
2020/12/18 02:33:51;;;;;;;;;;;;;;;27.27;26.83;101917.47;5057405;28;1973;-44
2020/12/18 02:36:23;;;;;;;;;;;;;;;27.09;26.70;101921.00;5057092;28;970;-42
2020/12/18 02:38:49;;;;;;;;;;;;;;;27.83;25.94;101921.78;5057270;28;847;-42
2020/12/18 02:41:14;;;;;;;;;;;;;;;28.03;25.80;101927.81;5057361;28;760;-41
2020/12/18 02:43:39;;;;;;;;;;;;;;;27.39;26.41;101920.78;5060686;28;1140;-42
2020/12/18 02:46:04;;;;;;;;;;;;;;;27.13;26.76;101925.13;5077126;28;763;-40
2020/12/18 02:48:30;;;;;;;;;;;;;;;27.06;26.84;101929.44;5077152;28;772;-40
2020/12/18 02:50:55;;;;;;;;;;;;;;;27.81;26.12;101930.06;5066049;28;943;-41
2020/12/18 02:53:22;;;;;;;;;;;;;;;28.13;25.53;101932.28;5057064;28;795;-41
2020/12/18 02:55:47;;;;;;;;;;;;;;;27.71;26.06;101932.03;5056980;28;1975;-41
2020/12/18 02:58:12;;;;;;;;;;;;;;;27.38;26.68;101929.88;5056622;28;819;-39
2020/12/18 03:00:38;;;;;;;;;;;;;;;27.05;26.84;101929.59;5056701;28;984;-44
2020/12/18 03:03:04;;;;;;;;;;;;;;;27.71;26.00;101940.97;5056984;28;847;-42
2020/12/18 03:05:29;;;;;;;;;;;;;;;28.08;25.54;101941.72;5056170;28;1014;-41
2020/12/18 03:07:54;;;;;;;;;;;;;;;27.69;26.03;101934.91;5056765;28;806;-41
2020/12/18 03:10:19;;;;;;;;;;;;;;;27.32;26.75;101942.16;5056504;28;844;-43
2020/12/18 03:12:45;;;;;;;;;;;;;;;26.85;27.21;101938.66;5056524;28;807;-44
2020/12/18 03:15:11;;;;;;;;;;;;;;;27.62;26.30;101942.75;5056627;28;1977;-43
2020/12/18 03:17:36;;;;;;;;;;;;;;;27.86;25.97;101938.53;5057135;28;748;-43
2020/12/18 03:20:01;;;;;;;;;;;;;;;28.05;25.73;101944.75;5055837;28;1297;-41
2020/12/18 03:22:27;;;;;;;;;;;;;;;27.26;26.80;101943.63;5056240;28;815;-38
2020/12/18 03:24:52;;;;;;;;;;;;;;;27.08;26.82;101940.94;5056199;28;776;-41
2020/12/18 03:27:17;;;;;;;;;;;;;;;27.38;26.40;101946.94;5056336;28;796;-41
2020/12/18 03:29:42;;;;;;;;;;;;;;;27.86;25.99;101943.94;5056212;28;967;-41
2020/12/18 03:32:08;;;;;;;;;;;;;;;28.00;25.69;101949.78;5056647;28;860;-43
2020/12/18 03:34:33;;;;;;;;;;;;;;;27.33;26.64;101945.69;5056183;28;1913;-42
2020/12/18 03:36:58;;;;;;;;;;;;;;;27.08;26.85;101935.53;5056010;28;1022;-42
2020/12/18 03:39:23;;;;;;;;;;;;;;;27.32;26.94;101944.88;5056624;28;795;-41
2020/12/18 03:41:49;;;;;;;;;;;;;;;27.90;26.19;101944.47;5056418;28;843;-39
2020/12/18 03:44:14;;;;;;;;;;;;;;;27.96;26.01;101938.44;5065072;28;1235;-42
2020/12/18 03:46:39;;;;;;;;;;;;;;;27.28;26.73;101931.84;5076482;28;799;-42
2020/12/18 03:49:05;;;;;;;;;;;;;;;27.18;26.88;101932.75;5075803;28;836;-42
2020/12/18 03:51:30;;;;;;;;;;;;;;;27.33;27.01;101934.91;5061004;28;963;-42
2020/12/18 03:53:55;;;;;;;;;;;;;;;27.87;26.19;101942.97;5056416;28;1968;-40
2020/12/18 03:56:20;;;;;;;;;;;;;;;27.97;26.10;101950.97;5055998;28;772;-41
2020/12/18 03:58:46;;;;;;;;;;;;;;;27.31;26.85;101947.72;5056367;28;804;-42
2020/12/18 04:01:11;;;;;;;;;;;;;;;27.24;27.03;101951.03;5056346;28;752;-42
2020/12/18 04:03:36;;;;;;;;;;;;;;;27.22;26.97;101949.50;5055877;28;773;-41
2020/12/18 04:06:01;;;;;;;;;;;;;;;27.78;26.34;101945.78;5056149;28;955;-43
2020/12/18 04:08:27;;;;;;;;;;;;;;;28.05;26.05;101947.44;5056361;28;776;-42
2020/12/18 04:10:52;;;;;;;;;;;;;;;27.39;26.64;101947.81;5055989;28;740;-42
2020/12/18 04:13:17;;;;;;;;;;;;;;;27.18;27.16;101948.97;5055984;28;828;-40
2020/12/18 04:15:43;;;;;;;;;;;;;;;27.18;27.18;101942.69;5056503;28;1897;-42
2020/12/18 04:18:09;;;;;;;;;;;;;;;27.97;25.95;101950.97;5055459;28;1292;-42
2020/12/18 04:20:34;;;;;;;;;;;;;;;27.13;27.10;101951.28;5055952;28;971;-42
2020/12/18 04:23:00;;;;;;;;;;;;;;;27.37;26.75;101944.41;5056466;28;804;-36
2020/12/18 04:25:25;;;;;;;;;;;;;;;27.74;26.19;101951.47;5055630;28;740;-36
2020/12/18 04:27:50;;;;;;;;;;;;;;;27.96;25.90;101951.13;5055903;28;792;-37
2020/12/18 04:30:15;;;;;;;;;;;;;;;28.16;25.71;101945.47;5055746;28;810;-41
2020/12/18 04:32:41;;;;;;;;;;;;;;;27.19;24.30;101949.81;5055845;28;803;-41
2020/12/18 04:35:06;;;;;;;;;;;;;;;25.22;24.37;101944.91;5055764;28;1967;-40
2020/12/18 04:37:31;;;;;;;;;;;;;;;22.84;26.99;101940.78;5057347;28;919;-40
2020/12/18 04:39:57;;;;;;;;;;;;;;;25.63;23.50;101946.59;5059349;28;796;-41
2020/12/18 04:42:22;;;;;;;;;;;;;;;23.96;22.81;101944.16;5059313;28;760;-40
2020/12/18 04:44:47;;;;;;;;;;;;;;;22.09;25.77;101940.41;5054544;28;1367;-41
2020/12/18 04:47:13;;;;;;;;;;;;;;;20.67;27.73;101935.59;5079333;28;799;-42
2020/12/18 04:49:39;;;;;;;;;;;;;;;20.86;27.32;101934.28;5079274;28;771;-40
2020/12/18 04:52:07;;;;;;;;;;;;;;;20.21;27.90;101935.25;5041465;28;717;-38
2020/12/18 04:54:33;;;;;;;;;;;;;;;20.06;28.35;101929.16;5059219;28;1901;-42
2020/12/18 04:56:58;;;;;;;;;;;;;;;24.20;23.65;101929.59;5040884;28;1284;-44
2020/12/18 04:59:24;;;;;;;;;;;;;;;25.59;21.75;101937.09;5041495;28;767;-41
2020/12/18 05:01:52;;;;;;;;;;;;;;;26.15;20.77;101937.25;5058764;28;792;-37
2020/12/18 05:04:18;;;;;;;;;;;;;;;25.97;20.79;101937.19;5059927;28;1334;-36
2020/12/18 05:06:43;;;;;;;;;;;;;;;26.10;20.41;101939.53;5060381;28;971;-35
2020/12/18 05:09:08;;;;;;;;;;;;;;;26.51;20.35;101939.25;5078785;28;736;-37
2020/12/18 05:11:33;;;;;;;;;;;;;;;26.92;20.33;101947.00;5078809;28;815;-37
2020/12/18 05:13:59;;;;;;;;;;;;;;;27.04;21.21;101953.06;5078419;28;1964;-38
2020/12/18 05:16:24;;;;;;;;;;;;;;;27.25;21.76;101955.44;5078957;28;767;-37
2020/12/18 05:18:49;;;;;;;;;;;;;;;27.38;21.22;101962.31;5078328;28;1072;-37
2020/12/18 05:21:15;;;;;;;;;;;;;;;27.53;21.18;101959.06;5064896;28;974;-38
2020/12/18 05:23:41;;;;;;;;;;;;;;;27.70;21.35;101958.22;5072210;28;880;-37
2020/12/18 05:26:09;;;;;;;;;;;;;;;27.86;21.43;101959.34;5078266;28;884;-36
2020/12/18 05:28:41;;;;;;;;;;;;;;;28.05;21.32;101958.25;5078209;28;825;-37
2020/12/18 05:31:10;;;;;;;;;;;;;;;28.22;21.00;101955.66;5078654;28;744;-37
2020/12/18 05:33:35;;;;;;;;;;;;;;;28.33;21.02;101955.38;5078344;28;773;-35
2020/12/18 05:36:01;;;;;;;;;;;;;;;28.48;21.18;101966.44;5063500;28;1980;-35
2020/12/18 05:38:26;;;;;;;;;;;;;;;28.31;21.40;101961.97;5058704;28;768;-36
2020/12/18 05:40:51;;;;;;;;;;;;;;;28.53;21.42;101968.66;5058122;28;792;-37
2020/12/18 05:43:17;;;;;;;;;;;;;;;28.20;22.05;101971.19;5058514;28;1101;-36
2020/12/18 05:45:42;;;;;;;;;;;;;;;28.20;21.98;101972.03;5078028;28;820;-36
2020/12/18 05:48:07;;;;;;;;;;;;;;;28.25;22.06;101971.56;5077547;28;808;-36
2020/12/18 05:50:33;;;;;;;;;;;;;;;28.27;22.45;101972.25;5070439;28;955;-36
2020/12/18 05:53:03;;;;;;;;;;;;;;;27.90;23.00;101979.63;5067917;28;832;-37
2020/12/18 05:55:28;;;;;;;;;;;;;;;27.03;24.14;101975.66;5077848;28;1913;-36
2020/12/18 05:57:54;;;;;;;;;;;;;;;27.45;23.58;101976.03;5059480;28;1141;-34
2020/12/18 06:00:20;;;;;;;;;;;;;;;28.18;22.69;101984.88;5078177;28;743;-37
2020/12/18 06:02:45;;;;;;;;;;;;;;;28.52;22.32;101987.78;5077678;28;801;-33
2020/12/18 06:05:10;;;;;;;;;;;;;;;28.41;22.95;101981.63;5073250;28;951;-35
2020/12/18 06:07:37;;;;;;;;;;;;;;;27.71;23.68;101980.69;5057915;28;741;-33
2020/12/18 06:10:03;;;;;;;;;;;;;;;27.91;23.63;101985.91;5039912;28;773;-36
2020/12/18 06:12:28;;;;;;;;;;;;;;;28.35;23.13;101990.41;5057225;28;854;-34
2020/12/18 06:14:53;;;;;;;;;;;;;;;28.51;22.92;101983.38;5039930;28;1986;-36
2020/12/18 06:17:19;;;;;;;;;;;;;;;28.56;23.07;101983.75;5039226;28;812;-33
2020/12/18 06:19:44;;;;;;;;;;;;;;;27.78;24.43;101989.03;5039622;28;1080;-38
2020/12/18 06:22:12;;;;;;;;;;;;;;;27.50;24.61;101987.25;5057439;28;743;-43
2020/12/18 06:24:42;;;;;;;;;;;;;;;27.65;24.41;101990.25;5057106;28;788;-35
2020/12/18 06:27:17;;;;;;;;;;;;;;;27.61;24.72;101989.69;5057297;28;816;-42
2020/12/18 06:29:42;;;;;;;;;;;;;;;27.28;24.98;101989.41;5057397;28;775;-39
2020/12/18 06:32:23;;;;;;;;;;;;;;;27.80;24.30;101995.09;5057034;28;740;-42
2020/12/18 06:34:48;;;;;;;;;;;;;;;28.13;24.00;101999.91;5056897;28;1979;-44
2020/12/18 06:37:32;;;;;;;;;;;;;;;27.90;24.15;101989.59;5057439;28;1029;-40
2020/12/18 06:39:57;;;;;;;;;;;;;;;27.86;24.50;102000.72;5056715;28;775;-37
2020/12/18 06:42:23;;;;;;;;;;;;;;;27.71;24.34;102002.31;5057451;28;711;-38
2020/12/18 06:44:49;;;;;;;;;;;;;;;27.69;24.35;101997.06;5070429;28;1112;-39
2020/12/18 06:47:24;;;;;;;;;;;;;;;27.92;24.19;102001.09;5076892;28;752;-38
2020/12/18 06:49:58;;;;;;;;;;;;;;;28.16;23.81;101992.28;5075297;28;1010;-33
2020/12/18 06:52:38;;;;;;;;;;;;;;;28.34;23.89;102000.38;5057101;28;752;-38
2020/12/18 06:55:03;;;;;;;;;;;;;;;28.59;23.75;102007.78;5056185;28;1906;-37
2020/12/18 06:57:29;;;;;;;;;;;;;;;28.72;23.55;102007.31;5057052;28;879;-36
2020/12/18 07:00:13;;;;;;;;;;;;;;;28.91;23.46;102000.78;5056142;28;795;-36
2020/12/18 07:02:38;;;;;;;;;;;;;;;28.96;23.16;101995.72;5056482;28;871;-37
2020/12/18 07:05:03;;;;;;;;;;;;;;;28.96;23.21;102000.31;5056278;28;967;-37
2020/12/18 07:07:31;;;;;;;;;;;;;;;28.78;23.74;102011.25;5038987;28;859;-35
2020/12/18 07:09:56;;;;;;;;;;;;;;;28.79;23.95;102004.81;5056551;28;751;-33
2020/12/18 07:12:21;;;;;;;;;;;;;;;28.78;23.70;102019.38;5038673;28;906;-36
2020/12/18 07:14:49;;;;;;;;;;;;;;;29.01;23.75;102018.78;5038683;28;1913;-36
2020/12/18 07:17:15;;;;;;;;;;;;;;;29.23;23.10;102024.59;5056306;28;739;-36
2020/12/18 07:19:43;;;;;;;;;;;;;;;27.99;24.49;102013.84;5056346;28;1304;-34
2020/12/18 07:22:09;;;;;;;;;;;;;;;28.09;24.62;102018.31;5056479;28;772;-35
2020/12/18 07:24:34;;;;;;;;;;;;;;;28.62;23.88;102012.88;5056800;28;709;-42
2020/12/18 07:26:59;;;;;;;;;;;;;;;28.39;24.07;102012.59;5056701;28;824;-42
2020/12/18 07:29:24;;;;;;;;;;;;;;;28.20;24.09;102025.28;5056763;28;748;-42
2020/12/18 07:31:50;;;;;;;;;;;;;;;27.45;25.20;102014.72;5056145;28;827;-41
2020/12/18 07:34:15;;;;;;;;;;;;;;;28.08;24.59;102024.72;5038597;28;1918;-35
2020/12/18 07:36:40;;;;;;;;;;;;;;;28.78;23.30;102025.63;5054990;28;1510;-42
2020/12/18 07:39:07;;;;;;;;;;;;;;;29.04;23.02;102015.75;5076137;28;772;-38
2020/12/18 07:41:33;;;;;;;;;;;;;;;28.87;23.33;102017.53;5058670;28;1432;-38
2020/12/18 07:44:05;;;;;;;;;;;;;;;28.46;24.06;102027.19;5076219;28;1163;-43
2020/12/18 07:46:30;;;;;;;;;;;;;;;28.86;23.33;102022.13;5076148;28;776;-41
2020/12/18 07:48:55;;;;;;;;;;;;;;;29.15;23.15;102017.28;5076465;28;724;-44
2020/12/18 07:51:21;;;;;;;;;;;;;;;29.16;23.42;102016.28;5044251;28;1092;-42
2020/12/18 07:53:46;;;;;;;;;;;;;;;28.52;24.15;102015.72;5055911;28;772;-40
2020/12/18 07:56:12;;;;;;;;;;;;;;;28.82;23.89;102020.72;5056259;28;1902;-39
2020/12/18 07:58:50;;;;;;;;;;;;;;;29.00;23.60;102020.66;5055860;28;793;-40
2020/12/18 08:01:19;;;;;;;;;;;;;;;28.38;23.90;102019.03;5055553;28;873;-38
2020/12/18 08:03:46;;;;;;;;;;;;;;;28.28;23.82;102025.34;5056554;28;787;-44
2020/12/18 08:06:15;;;;;;;;;;;;;;;27.76;24.64;102021.59;5056371;28;1018;-37
2020/12/18 08:08:40;;;;;;;;;;;;;;;27.79;24.84;102018.59;5055635;28;863;-42
2020/12/18 08:11:12;;;;;;;;;;;;;;;28.49;24.13;102018.75;5056922;28;787;-43
2020/12/18 08:13:37;;;;;;;;;;;;;;;28.66;23.64;102022.34;5059981;28;748;-47
2020/12/18 08:16:06;;;;;;;;;;;;;;;27.91;24.73;102026.47;5059625;28;1902;-45
2020/12/18 08:18:32;;;;;;;;;;;;;;;27.71;25.16;102027.47;5060119;28;1084;-45
2020/12/18 08:20:57;;;;;;;;;;;;;;;28.32;24.22;102028.59;5058160;28;967;-45
2020/12/18 08:23:23;;;;;;;;;;;;;;;28.51;24.10;102032.94;5059539;28;740;-44
2020/12/18 08:25:48;;;;;;;;;;;;;;;28.22;24.33;102024.16;5040839;28;780;-39
2020/12/18 08:28:13;;;;;;;;;;;;;;;27.65;25.09;102019.97;5041629;28;799;-45
2020/12/18 08:30:38;;;;;;;;;;;;;;;27.66;25.06;102018.13;5041418;28;772;-43
2020/12/18 08:33:04;;;;;;;;;;;;;;;27.82;24.82;102020.13;5042016;28;511;-45
2020/12/18 08:35:29;;;;;;;;;;;;;;;27.58;24.86;102017.03;5041475;28;1910;-36
2020/12/18 08:37:57;;;;;;;;;;;;;;;27.62;24.52;102018.44;5058936;28;798;-45
2020/12/18 08:40:24;;;;;;;;;;;;;;;26.44;26.27;102009.19;5041672;28;1440;-44
2020/12/18 08:42:58;;;;;;;;;;;;;;;27.07;25.49;102016.72;5059268;28;759;-39
2020/12/18 08:45:24;;;;;;;;;;;;;;;27.93;24.56;102019.03;5076827;28;1160;-37
2020/12/18 08:47:50;;;;;;;;;;;;;;;28.13;24.12;102016.13;5078861;28;799;-38
2020/12/18 08:50:16;;;;;;;;;;;;;;;27.60;24.84;102014.19;5073867;28;978;-41
2020/12/18 08:52:42;;;;;;;;;;;;;;;27.82;24.86;102017.44;5058998;28;907;-41
2020/12/18 08:55:07;;;;;;;;;;;;;;;28.21;24.09;102010.78;5041392;28;1963;-40
2020/12/18 08:57:33;;;;;;;;;;;;;;;28.30;24.10;102000.84;5058946;28;750;-41
2020/12/18 08:59:58;;;;;;;;;;;;;;;28.46;23.71;101997.41;5059074;28;744;-41
2020/12/18 09:02:24;;;;;;;;;;;;;;;27.87;24.57;101996.19;5059075;28;874;-41
2020/12/18 09:05:08;;;;;;;;;;;;;;;27.88;24.50;101997.88;5058409;28;939;-41
2020/12/18 09:07:37;;;;;;;;;;;;;;;28.20;24.10;101990.97;5058768;28;856;-39
2020/12/18 09:10:02;;;;;;;;;;;;;;;28.23;24.41;101989.81;5058837;28;728;-40
2020/12/18 09:12:27;;;;;;;;;;;;;;;27.75;24.76;101995.56;5058707;28;826;-40
2020/12/18 09:14:53;;;;;;;;;;;;;;;27.59;24.94;101991.69;5058551;28;1898;-40
2020/12/18 09:17:18;;;;;;;;;;;;;;;28.17;24.09;101994.00;5058071;28;835;-40
2020/12/18 09:19:45;;;;;;;;;;;;;;;28.40;23.87;101996.19;5058241;28;1166;-40
2020/12/18 09:22:11;;;;;;;;;;;;;;;27.64;25.09;101988.53;5058250;28;847;-41
2020/12/18 09:24:36;;;;;;;;;;;;;;;27.19;25.57;101995.72;5057934;28;827;-41
2020/12/18 09:27:11;;;;;;;;;;;;;;;27.32;25.43;101977.28;5069838;28;999;-40
2020/12/18 09:29:36;;;;;;;;;;;;;;;27.80;24.53;101984.28;5078409;28;826;-41
2020/12/18 09:32:02;;;;;;;;;;;;;;;28.24;24.01;101984.22;5078329;28;855;-40
2020/12/18 09:34:28;;;;;;;;;;;;;;;28.01;24.26;101983.91;5078727;28;1906;-40
2020/12/18 09:36:54;;;;;;;;;;;;;;;28.39;23.97;101980.97;5059837;28;1022;-42
2020/12/18 09:39:19;;;;;;;;;;;;;;;28.83;23.62;101987.19;5058251;28;851;-43
2020/12/18 09:41:44;;;;;;;;;;;;;;;28.96;23.24;101979.47;5058636;28;815;-38
2020/12/18 09:44:09;;;;;;;;;;;;;;;27.63;24.89;101981.44;5065604;28;1065;-44
2020/12/18 09:46:35;;;;;;;;;;;;;;;27.33;25.18;101983.53;5078234;28;827;-36
2020/12/18 09:49:00;;;;;;;;;;;;;;;27.70;24.78;101977.13;5078271;28;803;-42
2020/12/18 09:51:25;;;;;;;;;;;;;;;28.39;23.69;101974.69;5062940;28;1014;-36
2020/12/18 09:53:51;;;;;;;;;;;;;;;28.08;24.18;101976.00;5074478;28;813;-39
2020/12/18 09:56:17;;;;;;;;;;;;;;;27.75;24.70;101979.34;5078274;28;1979;-37
2020/12/18 09:58:43;;;;;;;;;;;;;;;28.24;24.23;101981.53;5078164;28;768;-37
2020/12/18 10:01:08;;;;;;;;;;;;;;;28.48;23.66;101974.56;5077604;28;834;-43
2020/12/18 10:03:34;;;;;;;;;;;;;;;27.90;24.46;101981.47;5077605;28;776;-40
2020/12/18 10:05:59;;;;;;;;;;;;;;;27.99;24.33;101970.56;5066312;28;990;-42
2020/12/18 10:08:25;;;;;;;;;;;;;;;28.37;24.15;101974.88;5057698;28;852;-38
2020/12/18 10:10:50;;;;;;;;;;;;;;;28.59;23.89;101975.31;5057692;28;771;-43
2020/12/18 10:13:15;;;;;;;;;;;;;;;28.71;23.71;101973.97;5069339;28;911;-44
2020/12/18 10:15:41;;;;;;;;;;;;;;;28.22;24.39;101974.59;5077616;28;1913;-38
2020/12/18 10:18:06;;;;;;;;;;;;;;;28.06;24.30;101973.47;5076981;28;1122;-43
2020/12/18 10:20:32;;;;;;;;;;;;;;;27.68;24.03;101979.13;5069849;28;967;-42
2020/12/18 10:22:57;;;;;;;;;;;;;;;28.23;23.74;101981.69;5057251;28;787;-43
2020/12/18 10:25:22;;;;;;;;;;;;;;;28.07;23.93;101974.34;5068797;28;877;-44
2020/12/18 10:27:47;;;;;;;;;;;;;;;27.88;24.40;101973.53;5077234;28;839;-43
2020/12/18 10:30:13;;;;;;;;;;;;;;;28.28;24.16;101979.34;5077152;28;748;-38
2020/12/18 10:32:38;;;;;;;;;;;;;;;28.59;23.80;101980.72;5076989;28;767;-38
2020/12/18 10:35:04;;;;;;;;;;;;;;;27.94;24.43;101972.91;5055188;28;1977;-35
2020/12/18 10:37:30;;;;;;;;;;;;;;;27.18;22.57;101965.16;5056974;28;765;-42
2020/12/18 10:39:55;;;;;;;;;;;;;;;27.69;23.91;101971.88;5056777;28;732;-42
2020/12/18 10:42:20;;;;;;;;;;;;;;;27.86;23.88;101976.38;5056789;28;904;-41
2020/12/18 10:44:46;;;;;;;;;;;;;;;27.84;24.22;101974.88;5069503;28;1171;-41
2020/12/18 10:47:11;;;;;;;;;;;;;;;26.97;25.60;101968.13;5076468;28;831;-41
2020/12/18 10:49:36;;;;;;;;;;;;;;;26.55;26.42;101967.66;5076947;28;825;-41
2020/12/18 10:52:01;;;;;;;;;;;;;;;27.24;25.32;101971.81;5056647;28;944;-41
2020/12/18 10:54:27;;;;;;;;;;;;;;;27.43;25.30;101968.09;5056471;28;1914;-41
2020/12/18 10:56:55;;;;;;;;;;;;;;;27.10;25.47;101967.78;5062877;28;825;-41
2020/12/18 10:59:21;;;;;;;;;;;;;;;26.97;25.58;101960.88;5076920;28;771;-40
2020/12/18 11:01:50;;;;;;;;;;;;;;;27.41;25.20;101967.38;5076834;28;808;-41
2020/12/18 11:04:16;;;;;;;;;;;;;;;27.43;24.98;101969.94;5076811;28;736;-41
2020/12/18 11:06:41;;;;;;;;;;;;;;;27.53;24.17;101964.47;5058841;28;947;-40
2020/12/18 11:09:06;;;;;;;;;;;;;;;27.49;24.20;101964.75;5056421;28;760;-40
2020/12/18 11:11:31;;;;;;;;;;;;;;;27.01;25.37;101961.41;5056766;28;728;-42
2020/12/18 11:13:57;;;;;;;;;;;;;;;27.16;25.54;101950.94;5055909;28;851;-40
2020/12/18 11:16:22;;;;;;;;;;;;;;;27.66;24.83;101962.19;5056399;28;1963;-38
2020/12/18 11:18:48;;;;;;;;;;;;;;;27.54;25.09;101961.63;5056446;28;1105;-43
2020/12/18 11:21:13;;;;;;;;;;;;;;;26.87;25.82;101955.56;5056324;28;1014;-42
2020/12/18 11:23:39;;;;;;;;;;;;;;;27.24;25.63;101955.59;5056827;28;855;-39
2020/12/18 11:26:04;;;;;;;;;;;;;;;27.01;24.72;101838.06;5056429;28;757;-39
2020/12/18 11:28:29;;;;;;;;;;;;;;;27.98;24.59;101958.06;5057262;28;829;-43
2020/12/18 11:30:55;;;;;;;;;;;;;;;27.80;24.46;101951.84;5076440;28;746;-45
2020/12/18 11:33:20;;;;;;;;;;;;;;;27.05;25.86;101952.03;5076528;28;822;-41
2020/12/18 11:35:45;;;;;;;;;;;;;;;27.15;25.82;101951.97;5065756;28;1910;-42
2020/12/18 11:38:11;;;;;;;;;;;;;;;27.59;25.23;101953.84;5055987;28;792;-43
2020/12/18 11:40:37;;;;;;;;;;;;;;;27.43;25.30;101951.03;5056707;28;786;-41
2020/12/18 11:43:02;;;;;;;;;;;;;;;27.17;25.68;101952.66;5056025;28;761;-42
2020/12/18 11:45:28;;;;;;;;;;;;;;;27.42;25.42;101952.91;5074770;28;1081;-42
2020/12/18 11:47:53;;;;;;;;;;;;;;;27.68;25.10;101954.81;5080156;28;788;-41
2020/12/18 11:50:18;;;;;;;;;;;;;;;27.83;24.71;101954.22;5073850;28;951;-36
2020/12/18 11:52:43;;;;;;;;;;;;;;;27.81;24.72;101951.69;5060478;28;815;-34
2020/12/18 11:55:09;;;;;;;;;;;;;;;27.65;25.18;101957.78;5059992;28;1906;-37
2020/12/18 11:57:34;;;;;;;;;;;;;;;27.41;24.94;101953.06;5059802;28;760;-37
2020/12/18 11:59:59;;;;;;;;;;;;;;;26.96;24.60;101956.47;5060495;28;716;-35
2020/12/18 12:02:24;;;;;;;;;;;;;;;26.59;24.90;101949.31;5074572;28;857;-35
2020/12/18 12:04:50;;;;;;;;;;;;;;;25.80;26.57;101947.72;5078011;28;1010;-35
2020/12/18 12:07:15;;;;;;;;;;;;;;;25.74;26.94;101949.13;5060368;28;752;-34
2020/12/18 12:09:40;;;;;;;;;;;;;;;26.75;25.30;101949.50;5059864;28;835;-34
2020/12/18 12:12:09;;;;;;;;;;;;;;;26.74;23.09;101955.88;5059675;28;792;-36
2020/12/18 12:14:35;;;;;;;;;;;;;;;25.34;24.91;101955.53;5067591;28;1939;-35
2020/12/18 12:17:00;;;;;;;;;;;;;;;26.36;26.93;101955.94;5079916;28;790;-36
2020/12/18 12:19:27;;;;;;;;;;;;;;;27.44;25.09;101948.19;5079391;28;1184;-36
2020/12/18 12:21:52;;;;;;;;;;;;;;;27.71;23.62;101959.06;5061300;28;947;-36
2020/12/18 12:24:17;;;;;;;;;;;;;;;27.73;22.03;101952.47;5059627;28;847;-36
2020/12/18 12:26:46;;;;;;;;;;;;;;;27.87;21.84;101953.78;5059476;28;788;-36
2020/12/18 12:29:11;;;;;;;;;;;;;;;27.82;22.74;101952.53;5059586;28;780;-35
2020/12/18 12:31:36;;;;;;;;;;;;;;;27.96;22.69;101957.34;5059471;28;795;-35
2020/12/18 12:34:01;;;;;;;;;;;;;;;27.99;23.16;101958.91;5069759;28;872;-35
2020/12/18 12:36:27;;;;;;;;;;;;;;;28.17;22.75;101957.97;5064203;28;1910;-35
2020/12/18 12:38:52;;;;;;;;;;;;;;;28.19;23.02;101958.69;5059040;28;823;-35
2020/12/18 12:41:17;;;;;;;;;;;;;;;28.44;22.73;101951.56;5059195;28;787;-35
2020/12/18 12:43:43;;;;;;;;;;;;;;;28.45;22.80;101955.09;5062929;28;1210;-35
2020/12/18 12:46:08;;;;;;;;;;;;;;;28.68;22.74;101954.50;5079143;28;798;-34
2020/12/18 12:48:33;;;;;;;;;;;;;;;27.73;23.86;101959.72;5079434;28;919;-34